Time;durP1;ratioP1;P1;durP2;ratioP2;P2;SDS_P1;SDS_P2;PMS_P1;PMS_P2;Temp;Humidity;BMP_temperature;BMP_pressure;BME280_temperature;BME280_humidity;BME280_pressure;Samples;Min_cycle;Max_cycle;Signal;HPM_P1;HPM_P2
2022/05/14 00:01:10;;;;;;;9.87;9.57;;;11.70;99.90;;;;;;5004578;28;20243;-79
2022/05/14 00:03:40;;;;;;;10.13;9.83;;;11.70;99.90;;;;;;5005009;28;20232;-80
2022/05/14 00:06:18;;;;;;;9.93;9.63;;;11.70;99.90;;;;;;5018070;28;20232;-79
2022/05/14 00:08:48;;;;;;;9.83;9.53;;;11.70;99.90;;;;;;5021780;28;20208;-79
2022/05/14 00:14:15;;;;;;;9.67;9.37;;;11.70;99.90;;;;;;5012228;28;20228;-79
2022/05/14 00:16:43;;;;;;;9.80;9.50;;;11.60;99.90;;;;;;5011020;28;20253;-80
2022/05/14 00:19:12;;;;;;;9.80;9.50;;;11.60;99.90;;;;;;5010176;28;20275;-79
2022/05/14 00:21:41;;;;;;;9.60;9.30;;;11.60;99.90;;;;;;5009979;28;20213;-80
2022/05/14 00:24:11;;;;;;;9.50;9.20;;;11.60;99.90;;;;;;5009532;28;20229;-79
2022/05/14 00:26:40;;;;;;;9.70;9.40;;;11.50;99.90;;;;;;5008210;28;20225;-80
2022/05/14 00:29:09;;;;;;;9.70;9.40;;;11.50;99.90;;;;;;5009325;28;20236;-80
2022/05/14 00:31:50;;;;;;;9.90;9.60;;;11.50;99.90;;;;;;5008523;28;20233;-79
2022/05/14 00:34:18;;;;;;;9.90;9.60;;;11.40;99.90;;;;;;5008047;28;20232;-80
2022/05/14 00:36:47;;;;;;;9.90;9.60;;;11.40;99.90;;;;;;5006557;28;20236;-80
2022/05/14 00:39:16;;;;;;;9.60;9.30;;;11.40;99.90;;;;;;5007833;28;20233;-80
2022/05/14 00:41:54;;;;;;;9.87;9.57;;;11.30;99.90;;;;;;5008068;28;20229;-80
2022/05/14 00:44:24;;;;;;;9.90;9.60;;;11.30;99.90;;;;;;5006965;28;20247;-79
2022/05/14 00:47:02;;;;;;;9.93;9.63;;;11.30;99.90;;;;;;5011758;28;20232;-80
2022/05/14 00:49:33;;;;;;;10.10;9.80;;;11.30;99.90;;;;;;5010656;28;20244;-79
2022/05/14 00:52:02;;;;;;;9.70;9.40;;;11.20;99.90;;;;;;5009190;28;20233;-80
2022/05/14 00:54:39;;;;;;;10.10;9.80;;;11.20;99.90;;;;;;5008398;28;20287;-80
2022/05/14 00:57:19;;;;;;;10.20;9.90;;;11.10;99.90;;;;;;5007080;28;20229;-80
2022/05/14 00:59:47;;;;;;;10.20;9.90;;;11.10;99.90;;;;;;5008243;28;20248;-80
2022/05/14 01:02:28;;;;;;;10.47;10.17;;;11.00;99.90;;;;;;5007769;28;20228;-80
2022/05/14 01:07:50;;;;;;;10.33;10.03;;;10.90;99.90;;;;;;5006566;28;20245;-79
2022/05/14 01:10:21;;;;;;;10.30;10.00;;;10.90;99.90;;;;;;5006855;28;20252;-80
2022/05/14 01:13:00;;;;;;;10.30;10.00;;;10.80;99.90;;;;;;5006525;28;20232;-80
2022/05/14 01:15:46;;;;;;;10.50;10.20;;;10.70;99.90;;;;;;5005832;28;20271;-80
2022/05/14 01:18:25;;;;;;;10.43;10.13;;;10.70;99.90;;;;;;5005941;28;20258;-79
2022/05/14 01:20:58;;;;;;;10.40;10.10;;;10.60;99.90;;;;;;5006474;28;20280;-79
2022/05/14 01:26:27;;;;;;;10.40;10.10;;;10.60;99.90;;;;;;5005715;28;20260;-80
2022/05/14 01:26:30;;;;;;;10.63;10.33;;;10.50;99.90;;;;;;5004859;28;20371;-80
2022/05/14 01:29:07;;;;;;;10.40;10.10;;;10.40;99.90;;;;;;5005732;28;20233;-80
2022/05/14 01:31:36;;;;;;;10.40;10.10;;;10.40;99.90;;;;;;5005396;28;20350;-79
2022/05/14 01:34:15;;;;;;;10.43;10.13;;;10.40;99.90;;;;;;5006082;28;20291;-79
2022/05/14 01:36:43;;;;;;;10.17;9.87;;;10.40;99.90;;;;;;5005037;28;20259;-80
2022/05/14 01:39:15;;;;;;;10.27;9.97;;;10.50;99.90;;;;;;5079013;22;20236;-86
2022/05/14 01:41:46;;;;;;;10.37;10.07;;;10.50;99.90;;;;;;5021500;28;20224;-86
2022/05/14 01:44:14;;;;;;;10.40;10.10;;;10.50;99.90;;;;;;5021755;28;20278;-86
2022/05/14 01:46:42;;;;;;;10.10;9.80;;;10.50;99.90;;;;;;5021614;28;20240;-86
2022/05/14 01:49:11;;;;;;;10.33;10.03;;;10.60;99.90;;;;;;5003518;28;20331;-86
2022/05/14 01:51:42;;;;;;;10.20;9.90;;;10.60;99.90;;;;;;5001790;28;20259;-86
2022/05/14 01:54:10;;;;;;;10.30;10.00;;;10.60;99.90;;;;;;5002420;28;20241;-85
2022/05/14 01:56:39;;;;;;;10.50;10.20;;;10.50;99.90;;;;;;5002312;28;20295;-85
2022/05/14 01:59:20;;;;;;;10.40;10.10;;;10.50;99.90;;;;;;5001883;28;20248;-85
2022/05/14 02:01:48;;;;;;;10.20;9.90;;;10.50;99.90;;;;;;5002392;28;20228;-85
2022/05/14 02:04:17;;;;;;;10.03;9.73;;;10.50;99.90;;;;;;5003712;28;20237;-86
2022/05/14 02:06:46;;;;;;;10.10;9.80;;;10.50;99.90;;;;;;5001525;28;20236;-86
2022/05/14 02:09:15;;;;;;;9.90;9.60;;;10.50;99.90;;;;;;5001017;28;20239;-85
2022/05/14 02:11:47;;;;;;;10.00;9.70;;;10.40;99.90;;;;;;5000725;28;20225;-86
2022/05/14 02:14:24;;;;;;;9.97;9.67;;;10.40;99.90;;;;;;5001927;28;20704;-86
2022/05/14 02:16:52;;;;;;;10.10;9.80;;;10.40;99.90;;;;;;5001304;28;20228;-86
2022/05/14 02:19:22;;;;;;;9.90;9.60;;;10.40;99.90;;;;;;5000456;28;20248;-85
2022/05/14 02:21:51;;;;;;;9.80;9.50;;;10.40;99.90;;;;;;5001033;28;20229;-86
2022/05/14 02:24:21;;;;;;;10.00;9.70;;;10.40;99.90;;;;;;5000894;28;20229;-86
2022/05/14 02:26:50;;;;;;;10.13;9.83;;;10.40;99.90;;;;;;5000740;28;20248;-85
2022/05/14 02:29:50;;;;;;;9.90;9.60;;;10.30;99.90;;;;;;5000569;28;20239;-85
2022/05/14 02:32:17;;;;;;;10.00;9.70;;;10.30;99.90;;;;;;5001005;28;20229;-86
2022/05/14 02:34:48;;;;;;;9.87;9.57;;;10.30;99.90;;;;;;5001139;28;20276;-85
2022/05/14 02:37:23;;;;;;;9.93;9.63;;;10.20;99.90;;;;;;5001686;28;20232;-86
2022/05/14 02:39:53;;;;;;;10.00;9.70;;;10.20;99.90;;;;;;5002900;28;20231;-85
2022/05/14 02:42:22;;;;;;;10.03;9.73;;;10.20;99.90;;;;;;5003381;28;20233;-86
2022/05/14 02:45:01;;;;;;;10.50;10.20;;;10.20;99.90;;;;;;5000733;28;20236;-86
2022/05/14 02:47:31;;;;;;;9.93;9.63;;;10.20;99.90;;;;;;5000757;28;20273;-86
2022/05/14 02:50:00;;;;;;;10.00;9.70;;;10.20;99.90;;;;;;5000729;28;20330;-86
2022/05/14 02:52:29;;;;;;;10.20;9.90;;;10.20;99.90;;;;;;5000335;28;20237;-86
2022/05/14 02:54:59;;;;;;;9.90;9.60;;;10.20;99.90;;;;;;5000387;28;20240;-85
2022/05/14 02:57:30;;;;;;;9.70;9.40;;;10.10;99.90;;;;;;5000286;28;20245;-85
2022/05/14 03:00:06;;;;;;;10.10;9.80;;;10.10;99.90;;;;;;5000448;28;20243;-85
2022/05/14 03:02:35;;;;;;;10.23;9.93;;;10.10;99.90;;;;;;5000358;28;20225;-85
2022/05/14 03:05:06;;;;;;;10.27;9.97;;;10.10;99.90;;;;;;5000666;28;20232;-85
2022/05/14 03:07:34;;;;;;;10.10;9.80;;;10.10;99.90;;;;;;5000330;28;20260;-86
2022/05/14 03:10:04;;;;;;;10.80;10.50;;;10.10;99.90;;;;;;5000551;28;20244;-86
2022/05/14 03:12:35;;;;;;;10.50;10.20;;;10.00;99.90;;;;;;5003765;28;20215;-85
2022/05/14 03:15:12;;;;;;;10.33;10.03;;;10.00;99.90;;;;;;5011940;28;20228;-84
2022/05/14 03:17:41;;;;;;;10.53;10.23;;;10.00;99.90;;;;;;5000914;28;20300;-85
2022/05/14 03:20:12;;;;;;;10.80;10.50;;;10.00;99.90;;;;;;5001918;28;20225;-83
2022/05/14 03:22:42;;;;;;;10.70;10.40;;;10.00;99.90;;;;;;5001649;28;20288;-85
2022/05/14 03:25:13;;;;;;;10.80;10.50;;;10.00;99.90;;;;;;5001405;28;20240;-85
2022/05/14 03:27:41;;;;;;;10.77;10.47;;;9.90;99.90;;;;;;5000287;28;20237;-85
2022/05/14 03:30:17;;;;;;;10.70;10.40;;;9.90;99.90;;;;;;5000654;28;20287;-87
2022/05/14 03:32:46;;;;;;;10.87;10.57;;;9.90;99.90;;;;;;5000538;28;20229;-84
2022/05/14 03:35:16;;;;;;;10.70;10.40;;;9.90;99.90;;;;;;5000546;28;20232;-85
2022/05/14 03:37:48;;;;;;;10.80;10.50;;;9.90;99.90;;;;;;4999675;28;20240;-85
2022/05/14 03:40:17;;;;;;;10.70;10.40;;;9.80;99.90;;;;;;4998851;28;20275;-85
2022/05/14 03:42:46;;;;;;;10.70;10.40;;;9.80;99.90;;;;;;5000463;28;20213;-85
2022/05/14 03:45:18;;;;;;;10.63;10.33;;;9.70;99.90;;;;;;5002399;28;20233;-85
2022/05/14 03:47:46;;;;;;;10.73;10.43;;;9.70;99.90;;;;;;5001278;28;20248;-85
2022/05/14 03:50:14;;;;;;;10.80;10.50;;;9.60;99.90;;;;;;5000170;28;20224;-85
2022/05/14 03:52:45;;;;;;;10.80;10.50;;;9.50;99.90;;;;;;4999689;28;20244;-85
2022/05/14 03:55:13;;;;;;;10.53;10.23;;;9.50;99.90;;;;;;4999827;28;20237;-85
2022/05/14 03:57:54;;;;;;;10.67;10.37;;;9.50;99.90;;;;;;4999702;28;20247;-86
2022/05/14 04:03:08;;;;;;;10.60;10.30;;;9.50;99.90;;;;;;4997821;28;20312;-85
2022/05/14 04:05:38;;;;;;;10.80;10.50;;;9.40;99.90;;;;;;4999560;28;20256;-86
2022/05/14 04:08:06;;;;;;;10.83;10.53;;;9.40;99.90;;;;;;4999082;28;20232;-86
2022/05/14 04:10:36;;;;;;;10.70;10.40;;;9.30;99.90;;;;;;4999466;28;20299;-86
2022/05/14 04:13:06;;;;;;;11.07;10.77;;;9.30;99.90;;;;;;4999808;28;20244;-86
2022/05/14 04:15:38;;;;;;;10.80;10.50;;;9.30;99.90;;;;;;4999934;28;20232;-86
2022/05/14 04:18:06;;;;;;;10.70;10.40;;;9.30;99.90;;;;;;4999802;28;20328;-86
2022/05/14 04:23:22;;;;;;;10.80;10.50;;;9.40;99.90;;;;;;4999957;28;20225;-86
2022/05/14 04:28:37;;;;;;;10.67;10.37;;;9.40;99.90;;;;;;5008953;28;20291;-86
2022/05/14 04:31:10;;;;;;;10.97;10.67;;;9.40;99.90;;;;;;5001721;28;20228;-86
2022/05/14 04:33:38;;;;;;;10.80;10.50;;;9.50;99.90;;;;;;5000333;28;20217;-86
2022/05/14 04:36:06;;;;;;;10.70;10.40;;;9.50;99.90;;;;;;5004952;28;20280;-86
2022/05/14 04:38:35;;;;;;;10.60;10.30;;;9.50;99.90;;;;;;5007544;28;20241;-87
2022/05/14 04:41:05;;;;;;;10.63;10.33;;;9.50;99.90;;;;;;5011512;28;20231;-86
2022/05/14 04:43:34;;;;;;;10.70;10.40;;;9.50;99.90;;;;;;5011820;28;20235;-86
2022/05/14 04:46:14;;;;;;;10.63;10.33;;;9.60;99.90;;;;;;5016375;28;20233;-86
2022/05/14 04:48:42;;;;;;;10.70;10.40;;;9.60;99.90;;;;;;5018886;28;20232;-87
2022/05/14 04:51:12;;;;;;;10.70;10.40;;;9.60;99.90;;;;;;5020478;28;20221;-87
2022/05/14 04:53:41;;;;;;;10.63;10.33;;;9.70;99.90;;;;;;5022693;28;20213;-88
2022/05/14 04:56:10;;;;;;;10.53;10.23;;;9.80;99.90;;;;;;5022678;28;20248;-88
2022/05/14 04:58:40;;;;;;;10.70;10.40;;;9.90;99.90;;;;;;5022478;28;20229;-87
2022/05/14 05:01:18;;;;;;;10.53;10.23;;;10.00;99.90;;;;;;5022095;28;20239;-89
2022/05/14 05:03:44;;;;;;;10.53;10.23;;;10.20;99.90;;;;;;5021764;28;20219;-87
2022/05/14 05:06:18;;;;;;;10.80;10.50;;;10.30;99.90;;;;;;5021520;28;20244;-87
2022/05/14 05:08:49;;;;;;;10.60;10.30;;;10.40;99.90;;;;;;5021753;28;20229;-87
2022/05/14 05:11:17;;;;;;;10.70;10.40;;;10.50;99.90;;;;;;5020431;28;20241;-87
2022/05/14 05:13:46;;;;;;;10.50;10.20;;;10.60;99.90;;;;;;5021461;28;20212;-88
2022/05/14 05:16:17;;;;;;;10.60;10.30;;;10.70;99.90;;;;;;5021558;28;20237;-87
2022/05/14 05:18:53;;;;;;;10.83;10.53;;;10.80;99.90;;;;;;5021588;28;20220;-87
2022/05/14 05:21:22;;;;;;;10.40;10.10;;;10.90;99.90;;;;;;5021112;28;20252;-86
2022/05/14 05:23:52;;;;;;;10.77;10.47;;;11.00;99.90;;;;;;5020820;28;20276;-88
2022/05/14 05:26:21;;;;;;;10.43;10.13;;;11.10;99.90;;;;;;5015886;28;20225;-86
2022/05/14 05:28:50;;;;;;;10.30;10.00;;;11.20;99.90;;;;;;5008768;28;20247;-86
2022/05/14 05:31:29;;;;;;;10.37;10.07;;;11.30;99.90;;;;;;5006644;28;20221;-85
2022/05/14 05:34:00;;;;;;;10.47;10.17;;;11.40;99.90;;;;;;5010400;28;20237;-86
2022/05/14 05:36:28;;;;;;;10.30;10.00;;;11.50;99.90;;;;;;5011172;28;20228;-86
2022/05/14 05:38:59;;;;;;;10.80;10.50;;;11.60;99.90;;;;;;5003816;28;20240;-86
2022/05/14 05:41:28;;;;;;;10.37;10.07;;;11.70;99.90;;;;;;5004050;28;20225;-86
2022/05/14 05:43:57;;;;;;;10.17;9.87;;;11.80;99.90;;;;;;5003390;28;20221;-87
2022/05/14 05:46:38;;;;;;;10.13;9.83;;;12.00;99.90;;;;;;5003167;28;20236;-87
2022/05/14 05:49:06;;;;;;;10.07;9.77;;;12.10;99.90;;;;;;5002814;28;20236;-86
2022/05/14 05:51:35;;;;;;;10.27;9.97;;;12.30;99.90;;;;;;5002737;28;20260;-86
2022/05/14 05:56:51;;;;;;;10.30;10.00;;;12.60;99.90;;;;;;5002550;28;20248;-86
2022/05/14 05:59:21;;;;;;;10.37;10.07;;;12.60;99.90;;;;;;5001691;28;20295;-86
2022/05/14 06:04:38;;;;;;;10.27;9.97;;;12.70;99.90;;;;;;5000445;28;20233;-86
2022/05/14 06:07:08;;;;;;;10.60;10.30;;;12.80;99.90;;;;;;5001772;28;20237;-87
2022/05/14 06:09:37;;;;;;;10.37;10.07;;;12.90;99.90;;;;;;5002024;28;20233;-87
2022/05/14 06:12:06;;;;;;;10.53;10.23;;;13.00;99.90;;;;;;5002195;28;20239;-88
2022/05/14 06:14:35;;;;;;;10.77;10.47;;;13.10;99.90;;;;;;5002759;28;20259;-87
2022/05/14 06:17:07;;;;;;;10.60;10.30;;;13.30;99.90;;;;;;5012608;28;20232;-86
2022/05/14 06:19:35;;;;;;;10.40;10.10;;;13.40;99.90;;;;;;5004035;28;20682;-87
2022/05/14 06:22:05;;;;;;;10.80;10.50;;;13.60;99.90;;;;;;5002680;28;20389;-87
2022/05/14 06:24:33;;;;;;;10.80;10.50;;;13.80;99.90;;;;;;5002675;28;20236;-87
2022/05/14 06:27:01;;;;;;;10.90;10.60;;;14.00;99.90;;;;;;5002302;28;20229;-87
2022/05/14 06:29:31;;;;;;;11.02;10.73;;;14.10;99.90;;;;;;5003000;28;20233;-87
2022/05/14 06:32:01;;;;;;;10.82;10.52;;;14.20;99.90;;;;;;5002128;28;20239;-87
2022/05/14 06:34:41;;;;;;;10.82;10.52;;;14.30;99.90;;;;;;5001997;28;20228;-86
2022/05/14 06:37:12;;;;;;;11.10;10.80;;;14.50;99.90;;;;;;5001140;28;20239;-86
2022/05/14 06:39:40;;;;;;;10.98;10.68;;;14.60;99.90;;;;;;5001521;28;20256;-87
2022/05/14 06:42:09;;;;;;;11.05;10.75;;;14.70;99.90;;;;;;5002402;28;20233;-87
2022/05/14 06:44:37;;;;;;;10.90;10.60;;;14.80;99.90;;;;;;5001365;28;20233;-86
2022/05/14 06:47:06;;;;;;;10.90;10.60;;;14.80;99.90;;;;;;5002394;28;20233;-86
2022/05/14 06:49:45;;;;;;;10.68;10.38;;;14.90;99.90;;;;;;5001812;28;20248;-87
2022/05/14 06:52:16;;;;;;;10.98;10.68;;;15.10;99.90;;;;;;5002055;28;20233;-87
2022/05/14 06:54:46;;;;;;;11.20;10.90;;;15.20;99.90;;;;;;5001164;28;20229;-87
2022/05/14 06:57:16;;;;;;;11.05;10.75;;;15.30;99.90;;;;;;5004938;28;20257;-86
2022/05/14 06:59:44;;;;;;;10.75;10.45;;;15.40;99.90;;;;;;5001459;28;20236;-87
2022/05/14 07:02:21;;;;;;;11.00;10.70;;;15.60;99.90;;;;;;5001224;28;20232;-87
2022/05/14 07:07:38;;;;;;;11.15;10.85;;;15.70;99.90;;;;;;5002390;28;20311;-86
2022/05/14 07:10:07;;;;;;;11.05;10.75;;;15.70;99.90;;;;;;5001618;28;20232;-87
2022/05/14 07:12:36;;;;;;;11.10;10.80;;;15.80;99.90;;;;;;5001095;28;20287;-87
2022/05/14 07:15:06;;;;;;;11.10;10.80;;;15.90;99.90;;;;;;5001213;28;20225;-87
2022/05/14 07:17:35;;;;;;;11.15;10.85;;;16.00;99.90;;;;;;5000891;28;20237;-88
2022/05/14 07:20:13;;;;;;;10.93;10.63;;;16.10;99.90;;;;;;5000187;28;20260;-87
2022/05/14 07:22:42;;;;;;;11.10;10.80;;;16.30;99.90;;;;;;5000147;28;20232;-87
2022/05/14 07:25:13;;;;;;;10.80;10.50;;;16.50;99.90;;;;;;5000017;28;20233;-86
2022/05/14 07:27:41;;;;;;;10.90;10.60;;;16.40;99.90;;;;;;5000538;28;20254;-87
2022/05/14 07:30:11;;;;;;;10.70;10.40;;;16.40;99.90;;;;;;5000271;28;20767;-86
2022/05/14 07:32:40;;;;;;;11.00;10.70;;;16.50;99.90;;;;;;5000221;28;20229;-87
2022/05/14 07:35:18;;;;;;;10.68;10.38;;;16.50;99.90;;;;;;5000032;28;20233;-87
2022/05/14 07:37:50;;;;;;;10.70;10.40;;;16.60;99.90;;;;;;5046446;22;20264;-77
2022/05/14 07:40:27;;;;;;;10.48;10.18;;;16.80;99.90;;;;;;5028120;28;20243;-79
2022/05/14 07:45:46;;;;;;;10.38;10.07;;;17.30;99.90;;;;;;5028529;28;20212;-79
2022/05/14 07:48:22;;;;;;;10.57;10.27;;;17.50;99.90;;;;;;5026037;28;20264;-78
2022/05/14 07:53:40;;;;;;;10.65;10.35;;;17.80;99.90;;;;;;5016409;28;20260;-79
2022/05/14 07:56:09;;;;;;;10.75;10.45;;;18.00;99.90;;;;;;5018602;28;20237;-79
2022/05/14 07:58:37;;;;;;;10.60;10.30;;;18.10;99.90;;;;;;5018288;28;20256;-79
2022/05/14 08:01:07;;;;;;;10.77;10.48;;;18.20;99.90;;;;;;5017682;28;20387;-79
2022/05/14 08:03:36;;;;;;;10.68;10.38;;;18.20;99.90;;;;;;5017048;28;20256;-81
2022/05/14 08:06:15;;;;;;;10.57;10.27;;;18.30;99.90;;;;;;5017431;28;20204;-78
2022/05/14 08:08:44;;;;;;;10.57;10.27;;;18.40;99.90;;;;;;5017368;28;20225;-79
2022/05/14 08:11:14;;;;;;;10.77;10.48;;;18.60;99.90;;;;;;5017526;28;20239;-78
2022/05/14 08:13:43;;;;;;;10.45;10.15;;;18.70;99.90;;;;;;5016237;28;20233;-78
2022/05/14 08:16:13;;;;;;;10.35;10.05;;;18.80;99.90;;;;;;5013838;28;20235;-79
2022/05/14 08:18:42;;;;;;;10.50;10.20;;;18.90;99.90;;;;;;5007116;28;20241;-79
2022/05/14 08:26:46;;;;;;;10.57;10.27;;;19.30;99.90;;;;;;5007294;28;20305;-79
2022/05/14 08:29:15;;;;;;;10.50;10.20;;;19.40;99.90;;;;;;5007544;28;20307;-79
2022/05/14 08:31:44;;;;;;;10.68;10.38;;;19.60;99.90;;;;;;5008376;28;20316;-80
2022/05/14 08:34:14;;;;;;;10.55;10.25;;;19.70;99.90;;;;;;5007850;28;20237;-79
2022/05/14 08:36:46;;;;;;;10.63;10.32;;;19.90;99.90;;;;;;5008329;28;20224;-79
2022/05/14 08:39:16;;;;;;;10.65;10.35;;;20.30;99.90;;;;;;5008139;28;20248;-79
2022/05/14 08:41:52;;;;;;;10.50;10.20;;;20.30;99.90;;;;;;5008509;28;20239;-79
2022/05/14 08:44:23;;;;;;;10.45;10.15;;;20.40;99.90;;;;;;5007549;28;20240;-79
2022/05/14 08:49:47;;;;;;;10.70;10.40;;;20.60;99.90;;;;;;5007786;28;20248;-80
2022/05/14 08:52:24;;;;;;;10.70;10.40;;;20.70;99.90;;;;;;5007541;28;20295;-80
2022/05/14 08:55:02;;;;;;;10.57;10.27;;;20.70;99.90;;;;;;5007698;28;20233;-79
2022/05/14 08:57:41;;;;;;;10.70;10.40;;;21.10;99.90;;;;;;5008513;28;20225;-79
2022/05/14 09:00:10;;;;;;;10.88;10.57;;;21.40;99.90;;;;;;5008113;28;20494;-80
2022/05/14 09:02:50;;;;;;;10.80;10.50;;;21.60;99.90;;;;;;5009061;28;20264;-79
2022/05/14 09:05:21;;;;;;;10.70;10.40;;;21.70;99.90;;;;;;5008122;28;20287;-80
2022/05/14 09:10:36;;;;;;;10.82;10.52;;;21.60;99.90;;;;;;5006912;28;20240;-79
2022/05/14 09:13:14;;;;;;;10.82;10.52;;;21.80;99.90;;;;;;5012304;28;20232;-80
2022/05/14 09:15:51;;;;;;;10.90;10.60;;;22.00;99.90;;;;;;5008979;28;20235;-80
2022/05/14 09:18:28;;;;;;;10.80;10.50;;;22.20;99.90;;;;;;5008882;28;20229;-79
2022/05/14 09:21:01;;;;;;;10.85;10.55;;;22.30;99.90;;;;;;5009503;28;20307;-80
2022/05/14 09:23:36;;;;;;;10.82;10.52;;;22.30;99.90;;;;;;5009112;28;20232;-80
2022/05/14 09:26:17;;;;;;;10.38;10.07;;;22.40;99.90;;;;;;5010344;28;20228;-79
2022/05/14 09:28:52;;;;;;;10.57;10.27;;;22.50;99.90;;;;;;5008166;28;20279;-80
2022/05/14 09:31:41;;;;;;;10.98;10.68;;;22.50;99.90;;;;;;5007666;28;20240;-80
2022/05/14 09:34:18;;;;;;;10.73;10.43;;;22.50;99.90;;;;;;5009214;28;20652;-80
2022/05/14 09:36:50;;;;;;;10.55;10.25;;;23.00;99.90;;;;;;5005647;28;20221;-79
2022/05/14 09:39:28;;;;;;;10.88;10.57;;;23.10;99.90;;;;;;5015359;28;20243;-78
2022/05/14 09:42:00;;;;;;;10.65;10.35;;;23.40;99.90;;;;;;5020839;28;20232;-78
2022/05/14 09:44:39;;;;;;;10.73;10.43;;;23.40;99.90;;;;;;5020674;28;20227;-78
2022/05/14 09:47:13;;;;;;;10.93;10.63;;;23.60;99.90;;;;;;5020587;28;20223;-78
2022/05/14 09:49:45;;;;;;;11.00;10.70;;;23.80;99.90;;;;;;5019684;28;20224;-79
2022/05/14 09:52:15;;;;;;;11.00;10.70;;;24.00;99.90;;;;;;5013234;28;20236;-78
2022/05/14 09:54:51;;;;;;;10.93;10.63;;;23.90;99.90;;;;;;5018818;28;20288;-79
2022/05/14 09:57:46;;;;;;;10.60;10.30;;;24.20;99.90;;;;;;5019104;28;20220;-78
2022/05/14 10:00:20;;;;;;;10.60;10.30;;;24.40;99.90;;;;;;5012523;28;20233;-79
2022/05/14 10:03:12;;;;;;;10.93;10.63;;;24.30;99.90;;;;;;5016852;28;20256;-79
2022/05/14 10:05:52;;;;;;;10.80;10.50;;;24.50;99.90;;;;;;5015220;28;20220;-79
2022/05/14 10:08:36;;;;;;;11.00;10.70;;;24.50;99.90;;;;;;5010826;28;20236;-79
2022/05/14 10:11:20;;;;;;;10.90;10.60;;;24.60;99.90;;;;;;5009538;28;20228;-80
2022/05/14 10:13:56;;;;;;;11.10;10.80;;;24.80;99.90;;;;;;5007920;28;20240;-78
2022/05/14 10:16:32;;;;;;;11.10;10.80;;;24.90;99.90;;;;;;5007893;28;20217;-79
2022/05/14 10:19:27;;;;;;;11.20;10.90;;;25.10;99.90;;;;;;5012762;28;20244;-78
2022/05/14 10:22:05;;;;;;;10.98;10.68;;;25.30;99.90;;;;;;5012794;28;20228;-79
2022/05/14 10:28:14;;;;;;;11.00;10.70;;;25.30;99.90;;;;;;5014267;28;20237;-79
2022/05/14 10:30:54;;;;;;;10.75;10.45;;;25.60;99.90;;;;;;5009042;28;20288;-79
2022/05/14 10:33:33;;;;;;;10.80;10.50;;;26.00;99.90;;;;;;5009400;28;20288;-80
2022/05/14 10:36:09;;;;;;;10.65;10.35;;;26.10;99.90;;;;;;5009313;28;20299;-80
2022/05/14 10:38:50;;;;;;;11.07;10.77;;;26.30;99.90;;;;;;5007714;28;20268;-79
2022/05/14 10:41:35;;;;;;;10.70;10.40;;;26.30;99.90;;;;;;5007545;28;20244;-79
2022/05/14 10:44:14;;;;;;;10.80;10.50;;;26.20;99.90;;;;;;5008019;28;20319;-79
2022/05/14 10:46:44;;;;;;;10.73;10.43;;;26.10;99.90;;;;;;5007179;28;20251;-79
2022/05/14 10:49:22;;;;;;;10.85;10.55;;;26.00;99.90;;;;;;5006200;28;20241;-79
2022/05/14 10:51:52;;;;;;;10.90;10.60;;;26.10;99.90;;;;;;5005670;28;20220;-80
2022/05/14 10:54:23;;;;;;;11.00;10.70;;;26.10;99.90;;;;;;5006266;28;20237;-79
2022/05/14 10:56:57;;;;;;;11.07;10.77;;;26.20;99.90;;;;;;5006045;28;20350;-79
2022/05/14 10:59:36;;;;;;;11.07;10.77;;;26.10;99.90;;;;;;5005662;28;20264;-79
2022/05/14 11:02:08;;;;;;;11.00;10.70;;;26.40;99.90;;;;;;5005711;28;20236;-79
2022/05/14 11:04:47;;;;;;;11.20;10.90;;;26.40;99.90;;;;;;5006251;28;20233;-79
2022/05/14 11:07:31;;;;;;;10.80;10.50;;;26.30;99.90;;;;;;5007110;28;20458;-79
2022/05/14 11:10:18;;;;;;;10.73;10.43;;;26.10;99.90;;;;;;5007261;28;20328;-79
2022/05/14 11:12:47;;;;;;;10.40;10.10;;;26.00;99.90;;;;;;5006685;28;20225;-79
2022/05/14 11:15:26;;;;;;;10.63;10.32;;;26.10;99.90;;;;;;5006187;28;20237;-79
2022/05/14 11:18:07;;;;;;;10.82;10.52;;;26.20;99.90;;;;;;5007061;28;20336;-79
2022/05/14 11:20:34;;;;;;;10.82;10.52;;;26.60;99.90;;;;;;5006655;28;20240;-80
2022/05/14 11:23:13;;;;;;;11.00;10.70;;;26.90;99.90;;;;;;5011189;28;20236;-80
2022/05/14 11:25:41;;;;;;;11.18;10.88;;;26.90;99.90;;;;;;5010079;28;20232;-79
2022/05/14 11:28:19;;;;;;;11.40;11.10;;;26.90;99.90;;;;;;5008553;28;20276;-79
2022/05/14 11:30:57;;;;;;;11.30;11.00;;;27.30;99.90;;;;;;5008313;28;20240;-79
2022/05/14 11:33:37;;;;;;;10.90;10.60;;;27.30;99.90;;;;;;5007650;28;20299;-79
2022/05/14 11:36:22;;;;;;;10.65;10.35;;;27.50;99.90;;;;;;5006508;28;20240;-79
2022/05/14 11:39:12;;;;;;;10.77;10.48;;;27.30;99.90;;;;;;5006207;28;20248;-80
2022/05/14 11:41:41;;;;;;;11.02;10.73;;;27.50;99.90;;;;;;5006026;28;20320;-79
2022/05/14 11:44:10;;;;;;;10.70;10.40;;;27.70;99.90;;;;;;5006222;28;20235;-79
2022/05/14 11:46:48;;;;;;;10.93;10.63;;;28.00;99.90;;;;;;5005619;28;20237;-79
2022/05/14 11:49:26;;;;;;;11.10;10.80;;;28.20;99.90;;;;;;5007149;28;20244;-79
2022/05/14 11:52:13;;;;;;;11.20;10.90;;;28.30;99.90;;;;;;5005743;28;20232;-79
2022/05/14 11:54:51;;;;;;;10.80;10.50;;;28.70;99.90;;;;;;5005572;28;20233;-79
2022/05/14 11:57:30;;;;;;;10.88;10.57;;;29.00;99.90;;;;;;5006187;28;20208;-79
2022/05/14 12:00:09;;;;;;;10.85;10.55;;;29.30;99.90;;;;;;5005932;28;20259;-79
2022/05/14 12:02:48;;;;;;;11.18;10.88;;;29.00;99.90;;;;;;5006931;28;20229;-80
2022/05/14 12:05:24;;;;;;;11.02;10.73;;;29.10;99.90;;;;;;5004985;28;20292;-77
2022/05/14 12:08:29;;;;;;;11.10;10.80;;;29.20;99.90;;;;;;5006996;28;20222;-79
2022/05/14 12:11:10;;;;;;;11.20;10.90;;;29.10;99.90;;;;;;5011022;28;20466;-79
2022/05/14 12:13:48;;;;;;;11.30;11.00;;;29.30;99.90;;;;;;5012022;28;20236;-80
2022/05/14 12:16:16;;;;;;;10.60;10.30;;;28.90;99.90;;;;;;5007920;28;20297;-80
2022/05/14 12:18:54;;;;;;;10.80;10.50;;;28.90;99.90;;;;;;5007611;28;20283;-80
2022/05/14 12:21:23;;;;;;;11.00;10.70;;;29.00;99.90;;;;;;5007625;28;20224;-78
2022/05/14 12:23:52;;;;;;;10.85;10.55;;;28.80;99.90;;;;;;5008140;28;20233;-79
2022/05/14 12:26:23;;;;;;;10.95;10.65;;;28.70;99.90;;;;;;5006158;28;20296;-79
2022/05/14 12:28:52;;;;;;;10.80;10.50;;;28.20;99.90;;;;;;5007446;28;20236;-79
2022/05/14 12:34:25;;;;;;;10.52;10.23;;;28.00;99.90;;;;;;5014083;28;20244;-79
2022/05/14 12:36:55;;;;;;;10.82;10.52;;;28.00;99.90;;;;;;5006108;28;20229;-79
2022/05/14 12:39:27;;;;;;;10.90;10.60;;;28.40;99.90;;;;;;5005179;28;20221;-79
2022/05/14 12:42:04;;;;;;;10.50;10.20;;;28.80;99.90;;;;;;5005543;28;20303;-78
2022/05/14 12:44:41;;;;;;;10.68;10.38;;;28.80;99.90;;;;;;5005046;28;20235;-78
2022/05/14 12:47:10;;;;;;;10.70;10.40;;;28.50;99.80;;;;;;5008211;28;20232;-80
2022/05/14 12:49:48;;;;;;;11.00;10.70;;;28.70;99.90;;;;;;5003801;28;20260;-79
2022/05/14 12:52:20;;;;;;;10.70;10.40;;;29.10;99.90;;;;;;5003783;28;20237;-78
2022/05/14 12:54:56;;;;;;;10.80;10.50;;;29.50;99.80;;;;;;5007952;28;20768;-78
2022/05/14 12:57:26;;;;;;;10.90;10.60;;;29.70;99.00;;;;;;5002733;28;20237;-78
2022/05/14 12:59:55;;;;;;;10.50;10.20;;;29.80;99.60;;;;;;5003522;28;20273;-79
2022/05/14 13:02:33;;;;;;;10.65;10.35;;;29.90;97.00;;;;;;5003648;28;20233;-78
2022/05/14 13:05:11;;;;;;;10.50;10.20;;;29.80;96.60;;;;;;5004164;28;20284;-78
2022/05/14 13:07:50;;;;;;;10.85;10.55;;;29.50;97.30;;;;;;5003668;28;20221;-79
2022/05/14 13:10:21;;;;;;;10.90;10.60;;;29.00;98.20;;;;;;5004041;28;20229;-79
2022/05/14 13:13:00;;;;;;;10.70;10.40;;;29.00;97.60;;;;;;5006296;28;20236;-79
2022/05/14 13:15:37;;;;;;;11.00;10.70;;;29.00;98.00;;;;;;5006476;28;20243;-79
2022/05/14 13:18:23;;;;;;;10.90;10.60;;;28.80;96.40;;;;;;5006226;28;20224;-78
2022/05/14 13:21:18;;;;;;;10.80;10.50;;;29.40;96.60;;;;;;5007204;28;20253;-79
2022/05/14 13:23:57;;;;;;;10.80;10.50;;;29.10;96.90;;;;;;5007010;28;20239;-79
2022/05/14 13:26:35;;;;;;;10.75;10.45;;;29.50;95.80;;;;;;5009516;28;20248;-78
2022/05/14 13:29:23;;;;;;;10.68;10.38;;;29.50;97.80;;;;;;5007964;28;20264;-78
2022/05/14 13:31:55;;;;;;;10.68;10.38;;;29.60;96.20;;;;;;5007905;28;20245;-79
2022/05/14 13:37:25;;;;;;;10.65;10.35;;;29.60;96.50;;;;;;5008322;28;20224;-79
2022/05/14 13:39:56;;;;;;;10.70;10.40;;;29.60;96.90;;;;;;5037355;22;20275;-83
2022/05/14 13:42:35;;;;;;;10.82;10.52;;;29.70;96.60;;;;;;5020313;28;20228;-83
2022/05/14 13:45:13;;;;;;;10.82;10.52;;;29.70;95.40;;;;;;5019754;28;20289;-83
2022/05/14 13:47:52;;;;;;;10.93;10.63;;;29.50;96.00;;;;;;5019999;28;20255;-83
2022/05/14 13:50:30;;;;;;;10.77;10.48;;;29.70;96.20;;;;;;5002492;28;20224;-83